Schedule Details


Flight Number: CTN320
Departure: Franjo Tudman (LDZA) at 08:30
Arrival: Ruzyne (LKPR) at 09:50
Route: PETOV DCT TISKO DCT OKF M725 TABEM Z401 VLM

Weather Information
LDZA 191000Z 12004KT 070V170 CAVOK 09/02 Q1021 NOSIG
LKPR 191000Z 22023KT 9999 BKN026 06/01 Q1014 NOSIG
Schedule Frequency

Route Map